sensor_id;sensor_type;location;lat;lon;timestamp;P1;durP1;ratioP1;P2;durP2;ratioP2
58091;SDS011;43896;48.178;11.578;2023-02-22T00:00:13;16.60;;;8.52;;
58091;SDS011;43896;48.178;11.578;2023-02-22T00:02:46;15.07;;;8.65;;
58091;SDS011;43896;48.178;11.578;2023-02-22T00:05:15;17.40;;;8.73;;
58091;SDS011;43896;48.178;11.578;2023-02-22T00:07:44;14.68;;;8.00;;
58091;SDS011;43896;48.178;11.578;2023-02-22T00:10:11;15.02;;;8.18;;
58091;SDS011;43896;48.178;11.578;2023-02-22T00:12:39;15.07;;;7.50;;
58091;SDS011;43896;48.178;11.578;2023-02-22T00:15:05;13.95;;;7.30;;
58091;SDS011;43896;48.178;11.578;2023-02-22T00:17:30;13.27;;;7.60;;
58091;SDS011;43896;48.178;11.578;2023-02-22T00:19:56;10.07;;;6.18;;
58091;SDS011;43896;48.178;11.578;2023-02-22T00:22:21;10.50;;;6.50;;
58091;SDS011;43896;48.178;11.578;2023-02-22T00:24:46;11.07;;;6.07;;
58091;SDS011;43896;48.178;11.578;2023-02-22T00:27:12;11.40;;;6.15;;
58091;SDS011;43896;48.178;11.578;2023-02-22T00:29:37;11.10;;;6.32;;
58091;SDS011;43896;48.178;11.578;2023-02-22T00:32:08;12.57;;;5.63;;
58091;SDS011;43896;48.178;11.578;2023-02-22T00:34:33;12.20;;;6.72;;
58091;SDS011;43896;48.178;11.578;2023-02-22T00:36:58;10.65;;;6.15;;
58091;SDS011;43896;48.178;11.578;2023-02-22T00:39:26;9.75;;;6.00;;
58091;SDS011;43896;48.178;11.578;2023-02-22T00:41:52;11.77;;;6.13;;
58091;SDS011;43896;48.178;11.578;2023-02-22T00:44:17;10.00;;;5.63;;
58091;SDS011;43896;48.178;11.578;2023-02-22T00:46:42;10.32;;;5.80;;
58091;SDS011;43896;48.178;11.578;2023-02-22T00:49:07;12.40;;;5.80;;
58091;SDS011;43896;48.178;11.578;2023-02-22T00:51:33;12.32;;;5.88;;
58091;SDS011;43896;48.178;11.578;2023-02-22T00:53:58;10.25;;;5.82;;
58091;SDS011;43896;48.178;11.578;2023-02-22T00:56:23;12.18;;;5.72;;
58091;SDS011;43896;48.178;11.578;2023-02-22T00:58:49;10.55;;;5.75;;
58091;SDS011;43896;48.178;11.578;2023-02-22T01:01:14;9.07;;;5.60;;
58091;SDS011;43896;48.178;11.578;2023-02-22T01:03:39;10.63;;;5.95;;
58091;SDS011;43896;48.178;11.578;2023-02-22T01:06:05;10.55;;;5.72;;
58091;SDS011;43896;48.178;11.578;2023-02-22T01:08:31;10.07;;;5.65;;
58091;SDS011;43896;48.178;11.578;2023-02-22T01:10:56;10.00;;;5.68;;
58091;SDS011;43896;48.178;11.578;2023-02-22T01:13:21;9.30;;;5.35;;
58091;SDS011;43896;48.178;11.578;2023-02-22T01:15:47;12.50;;;5.80;;
58091;SDS011;43896;48.178;11.578;2023-02-22T01:18:13;8.93;;;4.78;;
58091;SDS011;43896;48.178;11.578;2023-02-22T01:20:41;9.13;;;5.40;;
58091;SDS011;43896;48.178;11.578;2023-02-22T01:23:11;10.48;;;5.22;;
58091;SDS011;43896;48.178;11.578;2023-02-22T01:25:37;9.35;;;4.88;;
58091;SDS011;43896;48.178;11.578;2023-02-22T01:28:05;9.90;;;5.22;;
58091;SDS011;43896;48.178;11.578;2023-02-22T01:30:32;9.35;;;4.72;;
58091;SDS011;43896;48.178;11.578;2023-02-22T01:33:00;8.13;;;4.90;;
58091;SDS011;43896;48.178;11.578;2023-02-22T01:35:30;9.50;;;5.38;;
58091;SDS011;43896;48.178;11.578;2023-02-22T01:37:57;9.43;;;4.55;;
58091;SDS011;43896;48.178;11.578;2023-02-22T01:40:27;8.07;;;4.78;;
58091;SDS011;43896;48.178;11.578;2023-02-22T01:42:55;8.98;;;4.80;;
58091;SDS011;43896;48.178;11.578;2023-02-22T01:48:01;9.43;;;5.07;;
58091;SDS011;43896;48.178;11.578;2023-02-22T01:50:27;8.45;;;4.50;;
58091;SDS011;43896;48.178;11.578;2023-02-22T01:52:55;8.82;;;4.65;;
58091;SDS011;43896;48.178;11.578;2023-02-22T01:55:21;8.80;;;4.57;;
58091;SDS011;43896;48.178;11.578;2023-02-22T01:57:47;7.90;;;4.53;;
58091;SDS011;43896;48.178;11.578;2023-02-22T02:00:14;7.80;;;3.42;;
58091;SDS011;43896;48.178;11.578;2023-02-22T02:02:45;5.90;;;3.20;;
58091;SDS011;43896;48.178;11.578;2023-02-22T02:05:15;5.75;;;3.20;;
58091;SDS011;43896;48.178;11.578;2023-02-22T02:07:41;6.78;;;3.28;;
58091;SDS011;43896;48.178;11.578;2023-02-22T02:10:11;6.63;;;3.17;;
58091;SDS011;43896;48.178;11.578;2023-02-22T02:12:40;6.45;;;3.15;;
58091;SDS011;43896;48.178;11.578;2023-02-22T02:17:50;7.50;;;3.45;;
58091;SDS011;43896;48.178;11.578;2023-02-22T02:20:28;8.07;;;3.60;;
58091;SDS011;43896;48.178;11.578;2023-02-22T02:28:39;6.78;;;3.45;;
58091;SDS011;43896;48.178;11.578;2023-02-22T02:31:37;8.48;;;3.55;;
58091;SDS011;43896;48.178;11.578;2023-02-22T02:34:04;7.18;;;3.20;;
58091;SDS011;43896;48.178;11.578;2023-02-22T02:39:43;5.97;;;3.17;;
58091;SDS011;43896;48.178;11.578;2023-02-22T02:42:13;5.95;;;3.35;;
58091;SDS011;43896;48.178;11.578;2023-02-22T02:47:18;8.57;;;3.25;;
58091;SDS011;43896;48.178;11.578;2023-02-22T02:49:54;5.95;;;2.97;;
58091;SDS011;43896;48.178;11.578;2023-02-22T02:52:24;7.07;;;3.10;;
58091;SDS011;43896;48.178;11.578;2023-02-22T02:54:53;5.75;;;3.05;;
58091;SDS011;43896;48.178;11.578;2023-02-22T02:57:19;6.55;;;3.50;;
58091;SDS011;43896;48.178;11.578;2023-02-22T02:59:45;6.40;;;3.00;;
58091;SDS011;43896;48.178;11.578;2023-02-22T03:13:47;6.55;;;3.13;;
58091;SDS011;43896;48.178;11.578;2023-02-22T03:16:44;5.50;;;2.92;;
58091;SDS011;43896;48.178;11.578;2023-02-22T03:21:54;5.40;;;2.88;;
58091;SDS011;43896;48.178;11.578;2023-02-22T03:24:41;5.68;;;2.88;;
58091;SDS011;43896;48.178;11.578;2023-02-22T03:29:45;5.80;;;2.80;;
58091;SDS011;43896;48.178;11.578;2023-02-22T03:32:16;6.03;;;2.90;;
58091;SDS011;43896;48.178;11.578;2023-02-22T03:34:48;5.93;;;2.88;;
58091;SDS011;43896;48.178;11.578;2023-02-22T03:37:21;6.68;;;3.00;;
58091;SDS011;43896;48.178;11.578;2023-02-22T03:39:52;5.30;;;2.72;;
58091;SDS011;43896;48.178;11.578;2023-02-22T03:42:37;7.38;;;2.85;;
58091;SDS011;43896;48.178;11.578;2023-02-22T03:45:04;5.90;;;2.97;;
58091;SDS011;43896;48.178;11.578;2023-02-22T03:47:38;6.60;;;3.20;;
58091;SDS011;43896;48.178;11.578;2023-02-22T03:52:32;7.25;;;2.70;;
58091;SDS011;43896;48.178;11.578;2023-02-22T03:54:59;6.10;;;3.10;;
58091;SDS011;43896;48.178;11.578;2023-02-22T03:57:25;7.03;;;3.10;;
58091;SDS011;43896;48.178;11.578;2023-02-22T03:59:56;5.78;;;2.83;;
58091;SDS011;43896;48.178;11.578;2023-02-22T04:02:22;5.75;;;3.00;;
58091;SDS011;43896;48.178;11.578;2023-02-22T04:04:48;7.72;;;2.90;;
58091;SDS011;43896;48.178;11.578;2023-02-22T04:07:14;5.18;;;2.70;;
58091;SDS011;43896;48.178;11.578;2023-02-22T04:09:40;5.95;;;2.60;;
58091;SDS011;43896;48.178;11.578;2023-02-22T04:12:06;7.00;;;3.03;;
58091;SDS011;43896;48.178;11.578;2023-02-22T04:14:32;6.43;;;2.85;;
58091;SDS011;43896;48.178;11.578;2023-02-22T04:16:58;6.18;;;3.10;;
58091;SDS011;43896;48.178;11.578;2023-02-22T04:19:24;5.85;;;3.08;;
58091;SDS011;43896;48.178;11.578;2023-02-22T04:21:49;6.13;;;2.97;;
58091;SDS011;43896;48.178;11.578;2023-02-22T04:24:15;5.75;;;2.83;;
58091;SDS011;43896;48.178;11.578;2023-02-22T04:26:40;6.57;;;3.28;;
58091;SDS011;43896;48.178;11.578;2023-02-22T04:29:05;7.53;;;2.97;;
58091;SDS011;43896;48.178;11.578;2023-02-22T04:31:32;7.40;;;2.80;;
58091;SDS011;43896;48.178;11.578;2023-02-22T04:33:58;7.22;;;2.83;;
58091;SDS011;43896;48.178;11.578;2023-02-22T04:36:24;5.97;;;3.10;;
58091;SDS011;43896;48.178;11.578;2023-02-22T04:38:50;6.68;;;3.00;;
58091;SDS011;43896;48.178;11.578;2023-02-22T04:41:16;12.07;;;5.97;;
58091;SDS011;43896;48.178;11.578;2023-02-22T04:43:42;8.68;;;4.15;;
58091;SDS011;43896;48.178;11.578;2023-02-22T04:46:08;8.93;;;3.67;;
58091;SDS011;43896;48.178;11.578;2023-02-22T04:48:33;8.23;;;3.40;;
58091;SDS011;43896;48.178;11.578;2023-02-22T04:50:58;12.60;;;3.53;;
58091;SDS011;43896;48.178;11.578;2023-02-22T04:53:23;10.18;;;3.63;;
58091;SDS011;43896;48.178;11.578;2023-02-22T04:55:49;10.75;;;3.47;;
58091;SDS011;43896;48.178;11.578;2023-02-22T04:58:14;11.43;;;3.22;;
58091;SDS011;43896;48.178;11.578;2023-02-22T05:00:39;9.25;;;3.20;;
58091;SDS011;43896;48.178;11.578;2023-02-22T05:03:05;12.10;;;3.65;;
58091;SDS011;43896;48.178;11.578;2023-02-22T05:05:30;11.30;;;3.80;;
58091;SDS011;43896;48.178;11.578;2023-02-22T05:07:55;9.45;;;3.65;;
58091;SDS011;43896;48.178;11.578;2023-02-22T05:10:20;8.98;;;3.78;;
58091;SDS011;43896;48.178;11.578;2023-02-22T05:12:46;12.40;;;3.47;;
58091;SDS011;43896;48.178;11.578;2023-02-22T05:15:14;9.63;;;3.60;;
58091;SDS011;43896;48.178;11.578;2023-02-22T05:17:42;7.32;;;3.90;;
58091;SDS011;43896;48.178;11.578;2023-02-22T05:20:09;7.72;;;4.00;;
58091;SDS011;43896;48.178;11.578;2023-02-22T05:22:43;9.10;;;4.18;;
58091;SDS011;43896;48.178;11.578;2023-02-22T05:25:08;11.70;;;4.50;;
58091;SDS011;43896;48.178;11.578;2023-02-22T05:27:35;7.85;;;3.90;;
58091;SDS011;43896;48.178;11.578;2023-02-22T05:30:00;8.77;;;4.07;;
58091;SDS011;43896;48.178;11.578;2023-02-22T05:32:25;10.70;;;4.70;;
58091;SDS011;43896;48.178;11.578;2023-02-22T05:34:51;10.15;;;5.10;;
58091;SDS011;43896;48.178;11.578;2023-02-22T05:37:17;15.32;;;5.55;;
58091;SDS011;43896;48.178;11.578;2023-02-22T05:39:42;11.70;;;4.82;;
58091;SDS011;43896;48.178;11.578;2023-02-22T05:42:08;11.55;;;4.57;;
58091;SDS011;43896;48.178;11.578;2023-02-22T05:44:33;15.45;;;4.43;;
58091;SDS011;43896;48.178;11.578;2023-02-22T05:46:58;10.15;;;4.05;;
58091;SDS011;43896;48.178;11.578;2023-02-22T05:49:23;12.30;;;4.18;;
58091;SDS011;43896;48.178;11.578;2023-02-22T05:51:49;17.45;;;4.63;;
58091;SDS011;43896;48.178;11.578;2023-02-22T05:54:14;11.02;;;4.43;;
58091;SDS011;43896;48.178;11.578;2023-02-22T05:56:39;16.98;;;4.57;;
58091;SDS011;43896;48.178;11.578;2023-02-22T05:59:05;9.45;;;4.38;;
58091;SDS011;43896;48.178;11.578;2023-02-22T06:01:30;13.65;;;4.07;;
58091;SDS011;43896;48.178;11.578;2023-02-22T06:03:55;11.68;;;4.30;;
58091;SDS011;43896;48.178;11.578;2023-02-22T06:06:20;14.68;;;4.63;;
58091;SDS011;43896;48.178;11.578;2023-02-22T06:08:46;11.88;;;4.75;;
58091;SDS011;43896;48.178;11.578;2023-02-22T06:11:11;11.00;;;4.65;;
58091;SDS011;43896;48.178;11.578;2023-02-22T06:13:37;19.08;;;4.85;;
58091;SDS011;43896;48.178;11.578;2023-02-22T06:16:03;10.30;;;4.50;;
58091;SDS011;43896;48.178;11.578;2023-02-22T06:18:28;9.30;;;4.50;;
58091;SDS011;43896;48.178;11.578;2023-02-22T06:20:55;13.98;;;4.32;;
58091;SDS011;43896;48.178;11.578;2023-02-22T06:23:21;16.58;;;6.25;;
58091;SDS011;43896;48.178;11.578;2023-02-22T06:25:47;12.13;;;5.05;;
58091;SDS011;43896;48.178;11.578;2023-02-22T06:28:12;12.50;;;4.90;;
58091;SDS011;43896;48.178;11.578;2023-02-22T06:30:39;11.88;;;4.88;;
58091;SDS011;43896;48.178;11.578;2023-02-22T06:33:04;16.15;;;5.13;;
58091;SDS011;43896;48.178;11.578;2023-02-22T06:35:30;10.85;;;4.60;;
58091;SDS011;43896;48.178;11.578;2023-02-22T06:37:55;12.98;;;4.75;;
58091;SDS011;43896;48.178;11.578;2023-02-22T06:40:20;13.10;;;5.32;;
58091;SDS011;43896;48.178;11.578;2023-02-22T06:42:46;12.55;;;5.55;;
58091;SDS011;43896;48.178;11.578;2023-02-22T06:45:13;9.82;;;5.22;;
58091;SDS011;43896;48.178;11.578;2023-02-22T06:47:40;9.52;;;4.97;;
58091;SDS011;43896;48.178;11.578;2023-02-22T06:50:06;10.63;;;5.05;;
58091;SDS011;43896;48.178;11.578;2023-02-22T06:52:41;14.75;;;5.15;;
58091;SDS011;43896;48.178;11.578;2023-02-22T06:55:07;16.80;;;5.03;;
58091;SDS011;43896;48.178;11.578;2023-02-22T06:57:32;11.63;;;4.32;;
58091;SDS011;43896;48.178;11.578;2023-02-22T06:59:57;8.73;;;3.78;;
58091;SDS011;43896;48.178;11.578;2023-02-22T07:02:23;12.13;;;3.65;;
58091;SDS011;43896;48.178;11.578;2023-02-22T07:04:48;7.13;;;3.75;;
58091;SDS011;43896;48.178;11.578;2023-02-22T07:07:13;7.47;;;3.58;;
58091;SDS011;43896;48.178;11.578;2023-02-22T07:09:38;7.38;;;3.60;;
58091;SDS011;43896;48.178;11.578;2023-02-22T07:12:04;6.88;;;3.40;;
58091;SDS011;43896;48.178;11.578;2023-02-22T07:14:29;8.18;;;3.50;;
58091;SDS011;43896;48.178;11.578;2023-02-22T07:16:54;9.65;;;3.70;;
58091;SDS011;43896;48.178;11.578;2023-02-22T07:19:20;6.20;;;3.42;;
58091;SDS011;43896;48.178;11.578;2023-02-22T07:21:45;16.17;;;3.90;;
58091;SDS011;43896;48.178;11.578;2023-02-22T07:24:12;9.82;;;3.45;;
58091;SDS011;43896;48.178;11.578;2023-02-22T07:26:40;7.65;;;3.50;;
58091;SDS011;43896;48.178;11.578;2023-02-22T07:29:06;8.98;;;3.33;;
58091;SDS011;43896;48.178;11.578;2023-02-22T07:31:35;9.32;;;4.18;;
58091;SDS011;43896;48.178;11.578;2023-02-22T07:36:26;9.90;;;3.60;;
58091;SDS011;43896;48.178;11.578;2023-02-22T07:38:52;7.00;;;3.28;;
58091;SDS011;43896;48.178;11.578;2023-02-22T07:41:17;7.18;;;3.17;;
58091;SDS011;43896;48.178;11.578;2023-02-22T07:43:42;6.57;;;3.10;;
58091;SDS011;43896;48.178;11.578;2023-02-22T07:46:08;9.10;;;3.10;;
58091;SDS011;43896;48.178;11.578;2023-02-22T07:48:33;6.60;;;2.75;;
58091;SDS011;43896;48.178;11.578;2023-02-22T07:50:58;7.35;;;3.15;;
58091;SDS011;43896;48.178;11.578;2023-02-22T07:53:25;9.13;;;3.17;;
58091;SDS011;43896;48.178;11.578;2023-02-22T07:55:54;8.45;;;2.90;;
58091;SDS011;43896;48.178;11.578;2023-02-22T07:58:21;7.25;;;2.78;;
58091;SDS011;43896;48.178;11.578;2023-02-22T08:00:47;6.47;;;2.70;;
58091;SDS011;43896;48.178;11.578;2023-02-22T08:03:14;9.30;;;3.10;;
58091;SDS011;43896;48.178;11.578;2023-02-22T08:05:43;6.75;;;2.67;;
58091;SDS011;43896;48.178;11.578;2023-02-22T08:08:10;10.05;;;2.88;;
58091;SDS011;43896;48.178;11.578;2023-02-22T08:10:36;7.63;;;3.10;;
58091;SDS011;43896;48.178;11.578;2023-02-22T08:13:02;8.25;;;2.90;;
58091;SDS011;43896;48.178;11.578;2023-02-22T08:15:30;11.07;;;3.30;;
58091;SDS011;43896;48.178;11.578;2023-02-22T08:17:58;6.70;;;2.90;;
58091;SDS011;43896;48.178;11.578;2023-02-22T08:20:25;7.53;;;2.90;;
58091;SDS011;43896;48.178;11.578;2023-02-22T08:22:51;6.75;;;3.25;;
58091;SDS011;43896;48.178;11.578;2023-02-22T08:25:17;10.50;;;4.40;;
58091;SDS011;43896;48.178;11.578;2023-02-22T08:27:44;8.52;;;3.10;;
58091;SDS011;43896;48.178;11.578;2023-02-22T08:30:20;7.78;;;2.80;;
58091;SDS011;43896;48.178;11.578;2023-02-22T08:32:47;7.22;;;2.70;;
58091;SDS011;43896;48.178;11.578;2023-02-22T08:35:14;7.35;;;3.35;;
58091;SDS011;43896;48.178;11.578;2023-02-22T08:37:44;8.68;;;3.10;;
58091;SDS011;43896;48.178;11.578;2023-02-22T08:40:16;6.10;;;2.60;;
58091;SDS011;43896;48.178;11.578;2023-02-22T08:42:43;6.72;;;2.78;;
58091;SDS011;43896;48.178;11.578;2023-02-22T08:45:09;8.60;;;2.35;;
58091;SDS011;43896;48.178;11.578;2023-02-22T08:47:35;5.78;;;2.70;;
58091;SDS011;43896;48.178;11.578;2023-02-22T08:50:00;7.05;;;2.50;;
58091;SDS011;43896;48.178;11.578;2023-02-22T08:52:25;6.22;;;2.33;;
58091;SDS011;43896;48.178;11.578;2023-02-22T08:54:51;6.93;;;2.70;;
58091;SDS011;43896;48.178;11.578;2023-02-22T08:57:16;6.95;;;2.42;;
58091;SDS011;43896;48.178;11.578;2023-02-22T08:59:41;5.03;;;2.10;;
58091;SDS011;43896;48.178;11.578;2023-02-22T09:02:14;4.47;;;1.90;;
58091;SDS011;43896;48.178;11.578;2023-02-22T09:04:44;6.35;;;1.88;;
58091;SDS011;43896;48.178;11.578;2023-02-22T09:07:09;4.30;;;2.00;;
58091;SDS011;43896;48.178;11.578;2023-02-22T09:09:35;8.13;;;2.30;;
58091;SDS011;43896;48.178;11.578;2023-02-22T09:12:01;5.38;;;1.73;;
58091;SDS011;43896;48.178;11.578;2023-02-22T09:14:27;6.57;;;2.28;;
58091;SDS011;43896;48.178;11.578;2023-02-22T09:16:52;5.75;;;2.00;;
58091;SDS011;43896;48.178;11.578;2023-02-22T09:19:17;7.32;;;1.80;;
58091;SDS011;43896;48.178;11.578;2023-02-22T09:21:43;4.90;;;1.73;;
58091;SDS011;43896;48.178;11.578;2023-02-22T09:24:08;4.03;;;1.70;;
58091;SDS011;43896;48.178;11.578;2023-02-22T09:26:34;5.13;;;1.60;;
58091;SDS011;43896;48.178;11.578;2023-02-22T09:29:03;5.50;;;1.90;;
58091;SDS011;43896;48.178;11.578;2023-02-22T09:31:29;5.32;;;1.92;;
58091;SDS011;43896;48.178;11.578;2023-02-22T09:33:55;4.65;;;1.63;;
58091;SDS011;43896;48.178;11.578;2023-02-22T09:36:20;4.22;;;1.70;;
58091;SDS011;43896;48.178;11.578;2023-02-22T09:38:45;6.18;;;1.95;;
58091;SDS011;43896;48.178;11.578;2023-02-22T09:41:27;6.20;;;1.70;;
58091;SDS011;43896;48.178;11.578;2023-02-22T09:44:08;5.97;;;1.60;;
58091;SDS011;43896;48.178;11.578;2023-02-22T09:46:41;4.22;;;1.60;;
58091;SDS011;43896;48.178;11.578;2023-02-22T09:52:11;5.60;;;1.75;;
58091;SDS011;43896;48.178;11.578;2023-02-22T09:54:49;4.47;;;1.67;;
58091;SDS011;43896;48.178;11.578;2023-02-22T09:57:26;4.53;;;1.55;;
58091;SDS011;43896;48.178;11.578;2023-02-22T10:00:00;4.38;;;1.50;;
58091;SDS011;43896;48.178;11.578;2023-02-22T10:02:38;5.55;;;1.50;;
58091;SDS011;43896;48.178;11.578;2023-02-22T10:05:13;4.60;;;1.60;;
58091;SDS011;43896;48.178;11.578;2023-02-22T10:07:57;3.45;;;1.42;;
58091;SDS011;43896;48.178;11.578;2023-02-22T10:10:31;4.45;;;1.42;;
58091;SDS011;43896;48.178;11.578;2023-02-22T10:24:03;5.20;;;1.80;;
58091;SDS011;43896;48.178;11.578;2023-02-22T10:26:50;4.20;;;1.40;;
58091;SDS011;43896;48.178;11.578;2023-02-22T10:29:20;4.03;;;1.33;;
58091;SDS011;43896;48.178;11.578;2023-02-22T10:31:56;4.75;;;1.60;;
58091;SDS011;43896;48.178;11.578;2023-02-22T10:34:25;5.07;;;1.40;;
58091;SDS011;43896;48.178;11.578;2023-02-22T10:36:59;4.75;;;1.50;;
58091;SDS011;43896;48.178;11.578;2023-02-22T10:39:39;3.45;;;1.38;;
58091;SDS011;43896;48.178;11.578;2023-02-22T10:42:06;5.43;;;1.60;;
58091;SDS011;43896;48.178;11.578;2023-02-22T10:44:33;3.90;;;1.27;;
58091;SDS011;43896;48.178;11.578;2023-02-22T10:47:01;6.18;;;1.50;;
58091;SDS011;43896;48.178;11.578;2023-02-22T10:49:39;4.20;;;1.45;;
58091;SDS011;43896;48.178;11.578;2023-02-22T10:52:17;3.85;;;1.30;;
58091;SDS011;43896;48.178;11.578;2023-02-22T10:54:50;3.50;;;1.38;;
58091;SDS011;43896;48.178;11.578;2023-02-22T10:57:34;3.95;;;1.50;;
58091;SDS011;43896;48.178;11.578;2023-02-22T11:00:21;3.08;;;1.20;;
58091;SDS011;43896;48.178;11.578;2023-02-22T11:02:55;3.58;;;1.30;;
58091;SDS011;43896;48.178;11.578;2023-02-22T11:05:26;3.60;;;1.40;;
58091;SDS011;43896;48.178;11.578;2023-02-22T11:08:22;3.58;;;0.95;;
58091;SDS011;43896;48.178;11.578;2023-02-22T11:10:40;4.93;;;1.25;;
58091;SDS011;43896;48.178;11.578;2023-02-22T11:15:42;3.63;;;1.23;;
58091;SDS011;43896;48.178;11.578;2023-02-22T11:18:15;3.80;;;1.17;;
58091;SDS011;43896;48.178;11.578;2023-02-22T11:20:48;3.97;;;1.13;;
58091;SDS011;43896;48.178;11.578;2023-02-22T11:23:13;4.43;;;1.40;;
58091;SDS011;43896;48.178;11.578;2023-02-22T11:25:47;4.90;;;1.48;;
58091;SDS011;43896;48.178;11.578;2023-02-22T11:28:25;4.38;;;1.40;;
58091;SDS011;43896;48.178;11.578;2023-02-22T11:31:42;4.45;;;1.40;;
58091;SDS011;43896;48.178;11.578;2023-02-22T11:36:30;4.47;;;1.50;;
58091;SDS011;43896;48.178;11.578;2023-02-22T11:39:02;5.20;;;1.30;;
58091;SDS011;43896;48.178;11.578;2023-02-22T11:41:30;4.80;;;1.30;;
58091;SDS011;43896;48.178;11.578;2023-02-22T11:46:53;4.95;;;1.17;;
58091;SDS011;43896;48.178;11.578;2023-02-22T11:49:24;4.63;;;1.85;;
58091;SDS011;43896;48.178;11.578;2023-02-22T11:55:00;3.45;;;1.30;;
58091;SDS011;43896;48.178;11.578;2023-02-22T12:01:01;2.78;;;1.02;;
58091;SDS011;43896;48.178;11.578;2023-02-22T12:04:06;3.42;;;1.00;;
58091;SDS011;43896;48.178;11.578;2023-02-22T12:18:38;3.65;;;1.02;;
58091;SDS011;43896;48.178;11.578;2023-02-22T12:21:20;2.55;;;0.85;;
58091;SDS011;43896;48.178;11.578;2023-02-22T12:24:00;4.43;;;1.02;;
58091;SDS011;43896;48.178;11.578;2023-02-22T12:29:30;3.90;;;1.00;;
58091;SDS011;43896;48.178;11.578;2023-02-22T12:32:05;4.43;;;0.90;;
58091;SDS011;43896;48.178;11.578;2023-02-22T12:34:43;2.30;;;0.70;;
58091;SDS011;43896;48.178;11.578;2023-02-22T12:37:17;5.40;;;0.90;;
58091;SDS011;43896;48.178;11.578;2023-02-22T12:43:07;3.50;;;0.70;;
58091;SDS011;43896;48.178;11.578;2023-02-22T12:51:04;2.97;;;0.70;;
58091;SDS011;43896;48.178;11.578;2023-02-22T12:53:54;1.58;;;0.68;;
58091;SDS011;43896;48.178;11.578;2023-02-22T12:56:34;2.63;;;0.70;;
58091;SDS011;43896;48.178;11.578;2023-02-22T13:01:59;1.52;;;0.50;;
58091;SDS011;43896;48.178;11.578;2023-02-22T13:04:35;5.55;;;0.60;;
58091;SDS011;43896;48.178;11.578;2023-02-22T13:12:47;2.10;;;0.60;;
58091;SDS011;43896;48.178;11.578;2023-02-22T13:15:27;1.67;;;0.52;;
58091;SDS011;43896;48.178;11.578;2023-02-22T13:20:29;3.08;;;0.95;;
58091;SDS011;43896;48.178;11.578;2023-02-22T13:30:38;1.92;;;0.50;;
58091;SDS011;43896;48.178;11.578;2023-02-22T13:41:29;3.80;;;0.77;;
58091;SDS011;43896;48.178;11.578;2023-02-22T13:52:39;5.60;;;1.70;;
58091;SDS011;43896;48.178;11.578;2023-02-22T13:55:07;2.88;;;0.80;;
58091;SDS011;43896;48.178;11.578;2023-02-22T13:57:42;2.20;;;0.70;;
58091;SDS011;43896;48.178;11.578;2023-02-22T14:03:01;2.03;;;0.80;;
58091;SDS011;43896;48.178;11.578;2023-02-22T14:10:44;4.45;;;1.00;;
58091;SDS011;43896;48.178;11.578;2023-02-22T14:13:10;3.05;;;0.90;;
58091;SDS011;43896;48.178;11.578;2023-02-22T14:23:41;6.05;;;0.90;;
58091;SDS011;43896;48.178;11.578;2023-02-22T14:28:41;1.92;;;0.80;;
58091;SDS011;43896;48.178;11.578;2023-02-22T14:31:20;3.65;;;0.80;;
58091;SDS011;43896;48.178;11.578;2023-02-22T14:36:20;3.08;;;0.82;;
58091;SDS011;43896;48.178;11.578;2023-02-22T14:38:48;14.38;;;2.03;;
58091;SDS011;43896;48.178;11.578;2023-02-22T14:41:18;6.03;;;1.27;;
58091;SDS011;43896;48.178;11.578;2023-02-22T14:43:50;2.35;;;0.90;;
58091;SDS011;43896;48.178;11.578;2023-02-22T14:46:18;3.53;;;1.00;;
58091;SDS011;43896;48.178;11.578;2023-02-22T14:48:47;2.50;;;0.80;;
58091;SDS011;43896;48.178;11.578;2023-02-22T14:51:19;1.60;;;0.70;;
58091;SDS011;43896;48.178;11.578;2023-02-22T14:56:21;7.32;;;2.10;;
58091;SDS011;43896;48.178;11.578;2023-02-22T15:01:34;1.70;;;0.70;;
58091;SDS011;43896;48.178;11.578;2023-02-22T15:06:43;4.55;;;0.93;;
58091;SDS011;43896;48.178;11.578;2023-02-22T15:09:14;4.50;;;0.90;;
58091;SDS011;43896;48.178;11.578;2023-02-22T15:14:28;2.13;;;0.73;;
58091;SDS011;43896;48.178;11.578;2023-02-22T15:16:58;1.97;;;0.90;;
58091;SDS011;43896;48.178;11.578;2023-02-22T15:19:27;4.93;;;2.38;;
58091;SDS011;43896;48.178;11.578;2023-02-22T15:21:56;4.45;;;2.00;;
58091;SDS011;43896;48.178;11.578;2023-02-22T15:24:24;5.18;;;2.47;;
58091;SDS011;43896;48.178;11.578;2023-02-22T15:26:52;7.72;;;2.58;;
58091;SDS011;43896;48.178;11.578;2023-02-22T15:29:22;7.05;;;2.50;;
58091;SDS011;43896;48.178;11.578;2023-02-22T15:31:50;4.75;;;2.20;;
58091;SDS011;43896;48.178;11.578;2023-02-22T15:34:23;6.20;;;2.35;;
58091;SDS011;43896;48.178;11.578;2023-02-22T15:36:54;5.35;;;2.22;;
58091;SDS011;43896;48.178;11.578;2023-02-22T15:42:08;6.60;;;2.90;;
58091;SDS011;43896;48.178;11.578;2023-02-22T15:44:48;5.97;;;2.42;;
58091;SDS011;43896;48.178;11.578;2023-02-22T15:47:23;5.43;;;2.60;;
58091;SDS011;43896;48.178;11.578;2023-02-22T15:55:17;5.43;;;2.70;;
58091;SDS011;43896;48.178;11.578;2023-02-22T15:57:45;10.10;;;3.28;;
58091;SDS011;43896;48.178;11.578;2023-02-22T16:00:21;7.13;;;2.95;;
58091;SDS011;43896;48.178;11.578;2023-02-22T16:02:57;8.10;;;3.40;;
58091;SDS011;43896;48.178;11.578;2023-02-22T16:05:27;5.65;;;3.00;;
58091;SDS011;43896;48.178;11.578;2023-02-22T16:08:00;10.13;;;2.92;;
58091;SDS011;43896;48.178;11.578;2023-02-22T16:10:27;7.32;;;3.08;;
58091;SDS011;43896;48.178;11.578;2023-02-22T16:13:18;7.55;;;3.20;;
58091;SDS011;43896;48.178;11.578;2023-02-22T16:16:01;8.25;;;3.30;;
58091;SDS011;43896;48.178;11.578;2023-02-22T16:18:32;8.48;;;2.92;;
58091;SDS011;43896;48.178;11.578;2023-02-22T16:21:07;10.75;;;3.30;;
58091;SDS011;43896;48.178;11.578;2023-02-22T16:23:50;6.35;;;3.13;;
58091;SDS011;43896;48.178;11.578;2023-02-22T16:26:30;6.63;;;2.90;;
58091;SDS011;43896;48.178;11.578;2023-02-22T16:29:00;5.95;;;2.92;;
58091;SDS011;43896;48.178;11.578;2023-02-22T16:31:31;6.13;;;2.85;;
58091;SDS011;43896;48.178;11.578;2023-02-22T16:33:59;7.82;;;3.13;;
58091;SDS011;43896;48.178;11.578;2023-02-22T16:36:39;7.40;;;3.15;;
58091;SDS011;43896;48.178;11.578;2023-02-22T16:39:16;7.30;;;3.03;;
58091;SDS011;43896;48.178;11.578;2023-02-22T16:41:47;7.25;;;3.05;;
58091;SDS011;43896;48.178;11.578;2023-02-22T16:44:14;6.60;;;2.90;;
58091;SDS011;43896;48.178;11.578;2023-02-22T16:46:41;8.35;;;3.30;;
58091;SDS011;43896;48.178;11.578;2023-02-22T16:49:10;7.25;;;3.10;;
58091;SDS011;43896;48.178;11.578;2023-02-22T16:51:41;6.53;;;3.25;;
58091;SDS011;43896;48.178;11.578;2023-02-22T16:54:10;6.88;;;3.30;;
58091;SDS011;43896;48.178;11.578;2023-02-22T16:56:38;8.43;;;2.85;;
58091;SDS011;43896;48.178;11.578;2023-02-22T16:59:06;10.80;;;3.40;;
58091;SDS011;43896;48.178;11.578;2023-02-22T17:01:34;6.95;;;3.03;;
58091;SDS011;43896;48.178;11.578;2023-02-22T17:04:00;7.57;;;3.28;;
58091;SDS011;43896;48.178;11.578;2023-02-22T17:06:25;6.75;;;3.05;;
58091;SDS011;43896;48.178;11.578;2023-02-22T17:08:53;8.10;;;3.22;;
58091;SDS011;43896;48.178;11.578;2023-02-22T17:11:18;7.72;;;3.00;;
58091;SDS011;43896;48.178;11.578;2023-02-22T17:13:44;8.45;;;3.17;;
58091;SDS011;43896;48.178;11.578;2023-02-22T17:16:13;9.18;;;3.15;;
58091;SDS011;43896;48.178;11.578;2023-02-22T17:18:39;6.72;;;3.30;;
58091;SDS011;43896;48.178;11.578;2023-02-22T17:21:04;6.43;;;2.75;;
58091;SDS011;43896;48.178;11.578;2023-02-22T17:23:30;6.68;;;3.10;;
58091;SDS011;43896;48.178;11.578;2023-02-22T17:25:57;10.50;;;3.65;;
58091;SDS011;43896;48.178;11.578;2023-02-22T17:28:28;20.88;;;3.50;;